sensor_id;sensor_type;location;lat;lon;timestamp;temperature;humidity
12276;DHT22;6200;48.144;11.424;2023-05-16T00:02:21;11.00;99.90
12276;DHT22;6200;48.144;11.424;2023-05-16T00:04:47;11.00;99.90
12276;DHT22;6200;48.144;11.424;2023-05-16T00:07:13;11.00;99.90
12276;DHT22;6200;48.144;11.424;2023-05-16T00:09:38;11.00;99.90
12276;DHT22;6200;48.144;11.424;2023-05-16T00:12:04;10.90;99.90
12276;DHT22;6200;48.144;11.424;2023-05-16T00:14:31;11.00;99.90
12276;DHT22;6200;48.144;11.424;2023-05-16T00:16:57;11.00;99.90
12276;DHT22;6200;48.144;11.424;2023-05-16T00:19:24;11.00;99.90
12276;DHT22;6200;48.144;11.424;2023-05-16T00:21:51;10.90;99.90
12276;DHT22;6200;48.144;11.424;2023-05-16T00:24:17;10.90;99.90
12276;DHT22;6200;48.144;11.424;2023-05-16T00:26:43;10.90;99.90
12276;DHT22;6200;48.144;11.424;2023-05-16T00:29:08;10.90;99.90
12276;DHT22;6200;48.144;11.424;2023-05-16T00:31:35;10.90;99.90
12276;DHT22;6200;48.144;11.424;2023-05-16T00:34:00;10.90;99.90
12276;DHT22;6200;48.144;11.424;2023-05-16T00:36:26;10.90;99.90
12276;DHT22;6200;48.144;11.424;2023-05-16T00:38:54;10.80;99.90
12276;DHT22;6200;48.144;11.424;2023-05-16T00:41:20;10.90;99.90
12276;DHT22;6200;48.144;11.424;2023-05-16T00:43:46;10.90;99.90
12276;DHT22;6200;48.144;11.424;2023-05-16T00:46:12;10.90;99.90
12276;DHT22;6200;48.144;11.424;2023-05-16T00:48:37;10.80;99.90
12276;DHT22;6200;48.144;11.424;2023-05-16T00:51:03;10.90;99.90
12276;DHT22;6200;48.144;11.424;2023-05-16T00:53:34;10.90;99.90
12276;DHT22;6200;48.144;11.424;2023-05-16T00:56:00;10.90;99.90
12276;DHT22;6200;48.144;11.424;2023-05-16T00:58:27;10.90;99.90
12276;DHT22;6200;48.144;11.424;2023-05-16T01:00:54;10.80;99.90
12276;DHT22;6200;48.144;11.424;2023-05-16T01:03:21;10.90;99.90
12276;DHT22;6200;48.144;11.424;2023-05-16T01:05:46;10.90;99.90
12276;DHT22;6200;48.144;11.424;2023-05-16T01:08:14;9.50;99.90
12276;DHT22;6200;48.144;11.424;2023-05-16T01:13:29;10.80;99.90
12276;DHT22;6200;48.144;11.424;2023-05-16T01:16:08;10.90;99.90
12276;DHT22;6200;48.144;11.424;2023-05-16T01:19:10;10.90;99.90
12276;DHT22;6200;48.144;11.424;2023-05-16T01:21:48;10.80;99.90
12276;DHT22;6200;48.144;11.424;2023-05-16T01:24:33;10.80;99.90
12276;DHT22;6200;48.144;11.424;2023-05-16T01:26:59;10.80;99.90
12276;DHT22;6200;48.144;11.424;2023-05-16T01:29:25;10.80;99.90
12276;DHT22;6200;48.144;11.424;2023-05-16T01:31:51;10.80;99.90
12276;DHT22;6200;48.144;11.424;2023-05-16T01:34:16;10.80;99.90
12276;DHT22;6200;48.144;11.424;2023-05-16T01:40:00;10.70;99.90
12276;DHT22;6200;48.144;11.424;2023-05-16T01:42:34;10.80;99.90
12276;DHT22;6200;48.144;11.424;2023-05-16T01:45:23;10.80;99.90
12276;DHT22;6200;48.144;11.424;2023-05-16T01:47:57;10.70;99.90
12276;DHT22;6200;48.144;11.424;2023-05-16T01:50:28;10.70;99.90
12276;DHT22;6200;48.144;11.424;2023-05-16T01:52:59;10.70;99.90
12276;DHT22;6200;48.144;11.424;2023-05-16T01:55:47;10.70;99.90
12276;DHT22;6200;48.144;11.424;2023-05-16T01:58:17;10.70;99.90
12276;DHT22;6200;48.144;11.424;2023-05-16T02:00:44;10.70;99.90
12276;DHT22;6200;48.144;11.424;2023-05-16T02:03:10;10.70;99.90
12276;DHT22;6200;48.144;11.424;2023-05-16T02:05:35;10.70;99.90
12276;DHT22;6200;48.144;11.424;2023-05-16T02:08:01;10.60;99.90
12276;DHT22;6200;48.144;11.424;2023-05-16T02:10:27;10.60;99.90
12276;DHT22;6200;48.144;11.424;2023-05-16T02:12:52;10.60;99.90
12276;DHT22;6200;48.144;11.424;2023-05-16T02:15:18;10.60;99.90
12276;DHT22;6200;48.144;11.424;2023-05-16T02:17:44;10.50;99.90
12276;DHT22;6200;48.144;11.424;2023-05-16T02:20:10;10.50;99.90
12276;DHT22;6200;48.144;11.424;2023-05-16T02:22:36;10.50;99.90
12276;DHT22;6200;48.144;11.424;2023-05-16T02:25:04;10.50;99.90
12276;DHT22;6200;48.144;11.424;2023-05-16T02:27:31;10.50;99.90
12276;DHT22;6200;48.144;11.424;2023-05-16T02:29:57;10.50;99.90
12276;DHT22;6200;48.144;11.424;2023-05-16T02:32:22;10.50;99.90
12276;DHT22;6200;48.144;11.424;2023-05-16T02:34:48;10.50;99.90
12276;DHT22;6200;48.144;11.424;2023-05-16T02:37:14;10.40;99.90
12276;DHT22;6200;48.144;11.424;2023-05-16T02:39:39;10.40;99.90
12276;DHT22;6200;48.144;11.424;2023-05-16T02:42:06;10.50;99.90
12276;DHT22;6200;48.144;11.424;2023-05-16T02:44:31;10.40;99.90
12276;DHT22;6200;48.144;11.424;2023-05-16T02:46:57;10.40;99.90
12276;DHT22;6200;48.144;11.424;2023-05-16T02:49:22;10.50;99.90
12276;DHT22;6200;48.144;11.424;2023-05-16T02:51:48;10.40;99.90
12276;DHT22;6200;48.144;11.424;2023-05-16T02:54:14;10.40;99.90
12276;DHT22;6200;48.144;11.424;2023-05-16T02:56:39;10.40;99.90
12276;DHT22;6200;48.144;11.424;2023-05-16T02:59:05;10.40;99.90
12276;DHT22;6200;48.144;11.424;2023-05-16T03:01:31;10.40;99.90
12276;DHT22;6200;48.144;11.424;2023-05-16T03:03:56;10.40;99.90
12276;DHT22;6200;48.144;11.424;2023-05-16T03:06:22;10.40;99.90
12276;DHT22;6200;48.144;11.424;2023-05-16T03:08:47;10.40;99.90
12276;DHT22;6200;48.144;11.424;2023-05-16T03:11:14;10.40;99.90
12276;DHT22;6200;48.144;11.424;2023-05-16T03:13:40;10.40;99.90
12276;DHT22;6200;48.144;11.424;2023-05-16T03:16:06;10.40;99.90
12276;DHT22;6200;48.144;11.424;2023-05-16T03:18:32;10.40;99.90
12276;DHT22;6200;48.144;11.424;2023-05-16T03:20:57;10.40;99.90
12276;DHT22;6200;48.144;11.424;2023-05-16T03:23:24;10.40;99.90
12276;DHT22;6200;48.144;11.424;2023-05-16T03:25:49;10.40;99.90
12276;DHT22;6200;48.144;11.424;2023-05-16T03:28:16;10.50;99.90
12276;DHT22;6200;48.144;11.424;2023-05-16T03:30:42;10.30;99.90
12276;DHT22;6200;48.144;11.424;2023-05-16T03:33:08;10.30;99.90
12276;DHT22;6200;48.144;11.424;2023-05-16T03:35:34;10.30;99.90
12276;DHT22;6200;48.144;11.424;2023-05-16T03:38:00;10.30;99.90
12276;DHT22;6200;48.144;11.424;2023-05-16T03:40:26;10.30;99.90
12276;DHT22;6200;48.144;11.424;2023-05-16T03:42:52;10.30;99.90
12276;DHT22;6200;48.144;11.424;2023-05-16T03:45:17;10.30;99.90
12276;DHT22;6200;48.144;11.424;2023-05-16T03:47:43;10.30;99.90
12276;DHT22;6200;48.144;11.424;2023-05-16T03:50:09;10.30;99.90
12276;DHT22;6200;48.144;11.424;2023-05-16T03:52:35;10.30;99.90
12276;DHT22;6200;48.144;11.424;2023-05-16T03:55:01;10.30;99.90
12276;DHT22;6200;48.144;11.424;2023-05-16T03:57:30;10.20;99.90
12276;DHT22;6200;48.144;11.424;2023-05-16T03:59:56;10.20;99.90
12276;DHT22;6200;48.144;11.424;2023-05-16T04:02:22;10.30;99.90
12276;DHT22;6200;48.144;11.424;2023-05-16T04:04:47;10.20;99.90
12276;DHT22;6200;48.144;11.424;2023-05-16T04:07:13;10.30;99.90
12276;DHT22;6200;48.144;11.424;2023-05-16T04:09:39;10.30;99.90
12276;DHT22;6200;48.144;11.424;2023-05-16T04:12:05;10.30;99.90
12276;DHT22;6200;48.144;11.424;2023-05-16T04:14:31;10.30;99.90
12276;DHT22;6200;48.144;11.424;2023-05-16T04:16:56;10.30;99.90
12276;DHT22;6200;48.144;11.424;2023-05-16T04:19:22;10.30;99.90
12276;DHT22;6200;48.144;11.424;2023-05-16T04:21:47;10.30;99.90
12276;DHT22;6200;48.144;11.424;2023-05-16T04:24:13;10.30;99.90
12276;DHT22;6200;48.144;11.424;2023-05-16T04:26:39;10.30;99.90
12276;DHT22;6200;48.144;11.424;2023-05-16T04:29:04;10.40;99.90
12276;DHT22;6200;48.144;11.424;2023-05-16T04:31:30;10.40;99.90
12276;DHT22;6200;48.144;11.424;2023-05-16T04:33:56;10.40;99.90
12276;DHT22;6200;48.144;11.424;2023-05-16T04:36:22;10.40;99.90
12276;DHT22;6200;48.144;11.424;2023-05-16T04:38:48;10.40;99.90
12276;DHT22;6200;48.144;11.424;2023-05-16T04:41:13;10.40;99.90
12276;DHT22;6200;48.144;11.424;2023-05-16T04:43:39;10.40;99.90
12276;DHT22;6200;48.144;11.424;2023-05-16T04:46:05;10.40;99.90
12276;DHT22;6200;48.144;11.424;2023-05-16T04:48:32;10.40;99.90
12276;DHT22;6200;48.144;11.424;2023-05-16T04:50:58;10.40;99.90
12276;DHT22;6200;48.144;11.424;2023-05-16T04:53:24;10.40;99.90
12276;DHT22;6200;48.144;11.424;2023-05-16T04:55:50;10.40;99.90
12276;DHT22;6200;48.144;11.424;2023-05-16T04:58:15;10.40;99.90
12276;DHT22;6200;48.144;11.424;2023-05-16T05:00:41;10.40;99.90
12276;DHT22;6200;48.144;11.424;2023-05-16T05:03:06;10.40;99.90
12276;DHT22;6200;48.144;11.424;2023-05-16T05:05:32;10.50;99.90
12276;DHT22;6200;48.144;11.424;2023-05-16T05:07:58;10.50;99.90
12276;DHT22;6200;48.144;11.424;2023-05-16T05:10:24;10.50;99.90
12276;DHT22;6200;48.144;11.424;2023-05-16T05:12:52;10.60;99.90
12276;DHT22;6200;48.144;11.424;2023-05-16T05:15:17;10.60;99.90
12276;DHT22;6200;48.144;11.424;2023-05-16T05:17:43;10.70;99.90
12276;DHT22;6200;48.144;11.424;2023-05-16T05:20:09;10.70;99.90
12276;DHT22;6200;48.144;11.424;2023-05-16T05:22:36;10.80;99.90
12276;DHT22;6200;48.144;11.424;2023-05-16T05:25:02;10.80;99.90
12276;DHT22;6200;48.144;11.424;2023-05-16T05:27:27;10.80;99.90
12276;DHT22;6200;48.144;11.424;2023-05-16T05:29:53;10.90;99.90
12276;DHT22;6200;48.144;11.424;2023-05-16T05:32:18;11.00;99.90
12276;DHT22;6200;48.144;11.424;2023-05-16T05:34:44;11.00;99.90
12276;DHT22;6200;48.144;11.424;2023-05-16T05:37:09;11.00;99.90
12276;DHT22;6200;48.144;11.424;2023-05-16T05:39:35;11.10;99.90
12276;DHT22;6200;48.144;11.424;2023-05-16T05:42:01;11.10;99.90
12276;DHT22;6200;48.144;11.424;2023-05-16T05:44:29;11.10;99.90
12276;DHT22;6200;48.144;11.424;2023-05-16T05:46:56;11.20;99.90
12276;DHT22;6200;48.144;11.424;2023-05-16T05:49:28;11.20;99.90
12276;DHT22;6200;48.144;11.424;2023-05-16T05:51:53;11.20;99.90
12276;DHT22;6200;48.144;11.424;2023-05-16T05:54:19;11.20;99.90
12276;DHT22;6200;48.144;11.424;2023-05-16T05:56:45;11.20;99.90
12276;DHT22;6200;48.144;11.424;2023-05-16T05:59:10;11.20;99.90
12276;DHT22;6200;48.144;11.424;2023-05-16T06:01:36;11.20;99.90
12276;DHT22;6200;48.144;11.424;2023-05-16T06:04:02;11.20;99.90
12276;DHT22;6200;48.144;11.424;2023-05-16T06:06:28;11.20;99.90
12276;DHT22;6200;48.144;11.424;2023-05-16T06:08:54;11.30;99.90
12276;DHT22;6200;48.144;11.424;2023-05-16T06:11:19;11.30;99.90
12276;DHT22;6200;48.144;11.424;2023-05-16T06:13:46;11.30;99.90
12276;DHT22;6200;48.144;11.424;2023-05-16T06:16:11;11.30;99.90
12276;DHT22;6200;48.144;11.424;2023-05-16T06:18:37;11.30;99.90
12276;DHT22;6200;48.144;11.424;2023-05-16T06:21:03;11.30;99.90
12276;DHT22;6200;48.144;11.424;2023-05-16T06:23:29;11.30;99.90
12276;DHT22;6200;48.144;11.424;2023-05-16T06:25:54;11.20;99.90
12276;DHT22;6200;48.144;11.424;2023-05-16T06:28:20;11.20;99.90
12276;DHT22;6200;48.144;11.424;2023-05-16T06:30:45;11.20;99.90
12276;DHT22;6200;48.144;11.424;2023-05-16T06:33:13;11.20;99.90
12276;DHT22;6200;48.144;11.424;2023-05-16T06:35:39;11.30;99.90
12276;DHT22;6200;48.144;11.424;2023-05-16T06:38:05;11.20;99.90
12276;DHT22;6200;48.144;11.424;2023-05-16T06:40:30;11.30;99.90
12276;DHT22;6200;48.144;11.424;2023-05-16T06:42:56;11.30;99.90
12276;DHT22;6200;48.144;11.424;2023-05-16T06:45:22;11.30;99.90
12276;DHT22;6200;48.144;11.424;2023-05-16T06:47:48;11.40;99.90
12276;DHT22;6200;48.144;11.424;2023-05-16T06:50:14;11.50;99.90
12276;DHT22;6200;48.144;11.424;2023-05-16T06:52:39;11.60;99.90
12276;DHT22;6200;48.144;11.424;2023-05-16T06:55:06;11.70;99.90
12276;DHT22;6200;48.144;11.424;2023-05-16T06:57:32;11.70;99.90
12276;DHT22;6200;48.144;11.424;2023-05-16T06:59:57;11.80;99.90
12276;DHT22;6200;48.144;11.424;2023-05-16T07:02:23;11.90;99.90
12276;DHT22;6200;48.144;11.424;2023-05-16T07:04:48;11.90;99.90
12276;DHT22;6200;48.144;11.424;2023-05-16T07:07:14;12.00;99.90
12276;DHT22;6200;48.144;11.424;2023-05-16T07:09:40;12.00;99.90
12276;DHT22;6200;48.144;11.424;2023-05-16T07:12:06;12.00;99.90
12276;DHT22;6200;48.144;11.424;2023-05-16T07:14:31;12.00;99.90
12276;DHT22;6200;48.144;11.424;2023-05-16T07:16:57;12.10;99.90
12276;DHT22;6200;48.144;11.424;2023-05-16T07:19:22;12.10;99.90
12276;DHT22;6200;48.144;11.424;2023-05-16T07:21:48;12.30;99.90
12276;DHT22;6200;48.144;11.424;2023-05-16T07:24:13;12.40;99.90
12276;DHT22;6200;48.144;11.424;2023-05-16T07:26:39;12.40;99.90
12276;DHT22;6200;48.144;11.424;2023-05-16T07:29:05;12.50;99.90
12276;DHT22;6200;48.144;11.424;2023-05-16T07:31:30;12.50;99.90
12276;DHT22;6200;48.144;11.424;2023-05-16T07:33:56;12.50;99.90
12276;DHT22;6200;48.144;11.424;2023-05-16T07:36:21;12.60;99.90
12276;DHT22;6200;48.144;11.424;2023-05-16T07:38:47;12.60;99.90
12276;DHT22;6200;48.144;11.424;2023-05-16T07:41:12;12.60;99.90
12276;DHT22;6200;48.144;11.424;2023-05-16T07:43:38;12.60;99.90
12276;DHT22;6200;48.144;11.424;2023-05-16T07:46:04;12.60;99.90
12276;DHT22;6200;48.144;11.424;2023-05-16T07:48:29;12.60;99.90
12276;DHT22;6200;48.144;11.424;2023-05-16T07:50:55;12.60;99.90
12276;DHT22;6200;48.144;11.424;2023-05-16T07:53:21;12.60;99.90
12276;DHT22;6200;48.144;11.424;2023-05-16T07:55:47;12.50;99.90
12276;DHT22;6200;48.144;11.424;2023-05-16T07:58:13;12.50;99.90
12276;DHT22;6200;48.144;11.424;2023-05-16T08:00:39;12.50;99.90
12276;DHT22;6200;48.144;11.424;2023-05-16T08:03:04;12.40;99.90
12276;DHT22;6200;48.144;11.424;2023-05-16T08:05:31;12.40;99.90
12276;DHT22;6200;48.144;11.424;2023-05-16T08:07:56;12.40;99.90
12276;DHT22;6200;48.144;11.424;2023-05-16T08:10:22;12.30;99.90
12276;DHT22;6200;48.144;11.424;2023-05-16T08:12:48;12.30;99.90
12276;DHT22;6200;48.144;11.424;2023-05-16T08:15:13;12.30;99.90
12276;DHT22;6200;48.144;11.424;2023-05-16T08:17:39;12.30;99.90
12276;DHT22;6200;48.144;11.424;2023-05-16T08:20:05;12.30;99.90
12276;DHT22;6200;48.144;11.424;2023-05-16T08:22:31;12.30;99.90
12276;DHT22;6200;48.144;11.424;2023-05-16T08:24:57;12.30;99.90
12276;DHT22;6200;48.144;11.424;2023-05-16T08:27:25;12.20;99.90
12276;DHT22;6200;48.144;11.424;2023-05-16T08:29:51;12.20;99.90
12276;DHT22;6200;48.144;11.424;2023-05-16T08:32:16;12.20;99.90
12276;DHT22;6200;48.144;11.424;2023-05-16T08:34:42;12.20;99.90
12276;DHT22;6200;48.144;11.424;2023-05-16T08:37:07;12.20;99.90
12276;DHT22;6200;48.144;11.424;2023-05-16T08:39:33;12.20;99.90
12276;DHT22;6200;48.144;11.424;2023-05-16T08:41:59;12.20;99.90
12276;DHT22;6200;48.144;11.424;2023-05-16T08:44:25;12.10;99.90
12276;DHT22;6200;48.144;11.424;2023-05-16T08:46:51;12.10;99.90
12276;DHT22;6200;48.144;11.424;2023-05-16T08:49:18;12.10;99.90
12276;DHT22;6200;48.144;11.424;2023-05-16T08:51:45;12.20;99.90
12276;DHT22;6200;48.144;11.424;2023-05-16T08:54:12;12.10;99.90
12276;DHT22;6200;48.144;11.424;2023-05-16T08:56:40;12.10;99.90
12276;DHT22;6200;48.144;11.424;2023-05-16T08:59:06;12.10;99.90
12276;DHT22;6200;48.144;11.424;2023-05-16T09:01:32;12.10;99.90
12276;DHT22;6200;48.144;11.424;2023-05-16T09:03:59;12.10;99.90
12276;DHT22;6200;48.144;11.424;2023-05-16T09:06:25;12.20;99.90
12276;DHT22;6200;48.144;11.424;2023-05-16T09:08:52;12.20;99.90
12276;DHT22;6200;48.144;11.424;2023-05-16T09:11:18;12.20;99.90
12276;DHT22;6200;48.144;11.424;2023-05-16T09:13:43;12.10;99.90
12276;DHT22;6200;48.144;11.424;2023-05-16T09:16:13;12.20;99.90
12276;DHT22;6200;48.144;11.424;2023-05-16T09:18:39;12.20;99.90
12276;DHT22;6200;48.144;11.424;2023-05-16T09:21:07;12.30;99.90
12276;DHT22;6200;48.144;11.424;2023-05-16T09:23:34;12.30;99.90
12276;DHT22;6200;48.144;11.424;2023-05-16T09:25:59;12.50;99.90
12276;DHT22;6200;48.144;11.424;2023-05-16T09:28:25;12.50;99.90
12276;DHT22;6200;48.144;11.424;2023-05-16T09:30:52;12.50;99.90
12276;DHT22;6200;48.144;11.424;2023-05-16T09:33:18;12.50;99.90
12276;DHT22;6200;48.144;11.424;2023-05-16T09:35:43;12.60;99.90
12276;DHT22;6200;48.144;11.424;2023-05-16T09:38:16;12.60;99.90
12276;DHT22;6200;48.144;11.424;2023-05-16T09:40:42;12.70;99.90
12276;DHT22;6200;48.144;11.424;2023-05-16T09:43:07;12.70;99.90
12276;DHT22;6200;48.144;11.424;2023-05-16T09:45:34;12.80;99.90
12276;DHT22;6200;48.144;11.424;2023-05-16T09:48:10;12.90;99.90
12276;DHT22;6200;48.144;11.424;2023-05-16T09:50:37;13.00;99.90
12276;DHT22;6200;48.144;11.424;2023-05-16T09:53:03;12.90;99.90
12276;DHT22;6200;48.144;11.424;2023-05-16T09:55:30;13.00;99.90
12276;DHT22;6200;48.144;11.424;2023-05-16T09:57:55;13.00;99.90
12276;DHT22;6200;48.144;11.424;2023-05-16T10:00:21;13.00;99.90
12276;DHT22;6200;48.144;11.424;2023-05-16T10:02:48;13.00;99.90
12276;DHT22;6200;48.144;11.424;2023-05-16T10:05:15;13.00;99.90
12276;DHT22;6200;48.144;11.424;2023-05-16T10:07:42;13.00;99.90
12276;DHT22;6200;48.144;11.424;2023-05-16T10:10:08;13.00;99.90
12276;DHT22;6200;48.144;11.424;2023-05-16T10:12:35;13.00;99.90
12276;DHT22;6200;48.144;11.424;2023-05-16T10:15:04;13.00;99.90
12276;DHT22;6200;48.144;11.424;2023-05-16T10:17:32;13.00;99.90
12276;DHT22;6200;48.144;11.424;2023-05-16T10:20:01;13.00;99.90
12276;DHT22;6200;48.144;11.424;2023-05-16T10:22:33;13.00;99.90
12276;DHT22;6200;48.144;11.424;2023-05-16T10:25:12;12.90;99.90
12276;DHT22;6200;48.144;11.424;2023-05-16T10:27:40;13.00;99.90
12276;DHT22;6200;48.144;11.424;2023-05-16T10:30:06;12.90;99.90
12276;DHT22;6200;48.144;11.424;2023-05-16T10:32:34;12.80;99.90
12276;DHT22;6200;48.144;11.424;2023-05-16T10:35:01;12.80;99.90
12276;DHT22;6200;48.144;11.424;2023-05-16T10:37:29;12.70;99.90
12276;DHT22;6200;48.144;11.424;2023-05-16T10:39:56;12.70;99.90
12276;DHT22;6200;48.144;11.424;2023-05-16T10:42:23;12.60;99.90
12276;DHT22;6200;48.144;11.424;2023-05-16T10:44:53;12.60;99.90
12276;DHT22;6200;48.144;11.424;2023-05-16T10:47:20;12.60;99.90
12276;DHT22;6200;48.144;11.424;2023-05-16T10:49:46;12.60;99.90
12276;DHT22;6200;48.144;11.424;2023-05-16T10:52:12;12.60;99.90
12276;DHT22;6200;48.144;11.424;2023-05-16T10:54:41;12.60;99.90
12276;DHT22;6200;48.144;11.424;2023-05-16T10:57:15;12.70;99.90
12276;DHT22;6200;48.144;11.424;2023-05-16T10:59:46;12.60;99.90
12276;DHT22;6200;48.144;11.424;2023-05-16T11:02:25;12.60;99.90
12276;DHT22;6200;48.144;11.424;2023-05-16T11:04:53;12.60;99.90
12276;DHT22;6200;48.144;11.424;2023-05-16T11:07:21;12.60;99.90
12276;DHT22;6200;48.144;11.424;2023-05-16T11:10:08;12.60;99.90
12276;DHT22;6200;48.144;11.424;2023-05-16T11:12:44;12.60;99.90
12276;DHT22;6200;48.144;11.424;2023-05-16T11:15:24;12.50;99.90
12276;DHT22;6200;48.144;11.424;2023-05-16T11:18:36;12.50;99.90
12276;DHT22;6200;48.144;11.424;2023-05-16T11:20:38;12.50;99.90
12276;DHT22;6200;48.144;11.424;2023-05-16T11:25:44;12.50;99.90
12276;DHT22;6200;48.144;11.424;2023-05-16T11:28:14;12.40;99.90
12276;DHT22;6200;48.144;11.424;2023-05-16T11:30:44;12.50;99.90
12276;DHT22;6200;48.144;11.424;2023-05-16T11:33:10;12.50;99.90
12276;DHT22;6200;48.144;11.424;2023-05-16T11:35:37;12.50;99.90
12276;DHT22;6200;48.144;11.424;2023-05-16T11:38:03;12.40;99.90
12276;DHT22;6200;48.144;11.424;2023-05-16T11:40:29;12.50;99.90
12276;DHT22;6200;48.144;11.424;2023-05-16T11:42:59;12.40;99.90
12276;DHT22;6200;48.144;11.424;2023-05-16T11:45:25;12.40;99.90
12276;DHT22;6200;48.144;11.424;2023-05-16T11:47:50;12.30;99.90
12276;DHT22;6200;48.144;11.424;2023-05-16T11:50:21;12.30;99.90
12276;DHT22;6200;48.144;11.424;2023-05-16T11:52:49;12.30;99.90
12276;DHT22;6200;48.144;11.424;2023-05-16T11:55:26;12.20;99.90
12276;DHT22;6200;48.144;11.424;2023-05-16T11:57:58;12.10;99.90
12276;DHT22;6200;48.144;11.424;2023-05-16T12:00:25;12.10;99.90
12276;DHT22;6200;48.144;11.424;2023-05-16T12:03:00;12.20;99.90
12276;DHT22;6200;48.144;11.424;2023-05-16T12:05:27;12.20;99.90
12276;DHT22;6200;48.144;11.424;2023-05-16T12:07:54;12.30;99.90
12276;DHT22;6200;48.144;11.424;2023-05-16T12:10:22;12.40;99.90
12276;DHT22;6200;48.144;11.424;2023-05-16T12:12:49;12.50;99.90
12276;DHT22;6200;48.144;11.424;2023-05-16T12:15:17;12.60;99.90
12276;DHT22;6200;48.144;11.424;2023-05-16T12:17:43;12.80;99.90
12276;DHT22;6200;48.144;11.424;2023-05-16T12:20:10;12.90;99.90
12276;DHT22;6200;48.144;11.424;2023-05-16T12:22:44;13.10;99.90
12276;DHT22;6200;48.144;11.424;2023-05-16T12:25:31;13.20;99.90
12276;DHT22;6200;48.144;11.424;2023-05-16T12:27:59;13.30;99.90
12276;DHT22;6200;48.144;11.424;2023-05-16T12:30:27;13.40;99.90
12276;DHT22;6200;48.144;11.424;2023-05-16T12:33:01;13.50;99.90
12276;DHT22;6200;48.144;11.424;2023-05-16T12:35:34;13.50;99.90
12276;DHT22;6200;48.144;11.424;2023-05-16T12:38:03;13.60;99.90
12276;DHT22;6200;48.144;11.424;2023-05-16T12:40:30;13.70;99.90
12276;DHT22;6200;48.144;11.424;2023-05-16T12:42:55;13.70;99.90
12276;DHT22;6200;48.144;11.424;2023-05-16T12:45:22;13.80;99.90
12276;DHT22;6200;48.144;11.424;2023-05-16T12:47:48;13.90;99.90
12276;DHT22;6200;48.144;11.424;2023-05-16T12:50:14;14.00;99.90
12276;DHT22;6200;48.144;11.424;2023-05-16T12:52:50;14.10;99.90
12276;DHT22;6200;48.144;11.424;2023-05-16T12:55:17;14.20;99.90
12276;DHT22;6200;48.144;11.424;2023-05-16T12:57:44;14.20;99.90
12276;DHT22;6200;48.144;11.424;2023-05-16T13:00:12;14.30;99.90
12276;DHT22;6200;48.144;11.424;2023-05-16T13:02:39;14.40;99.90
12276;DHT22;6200;48.144;11.424;2023-05-16T13:05:05;14.50;99.90
12276;DHT22;6200;48.144;11.424;2023-05-16T13:07:32;14.50;99.90
12276;DHT22;6200;48.144;11.424;2023-05-16T13:09:58;14.60;99.90
12276;DHT22;6200;48.144;11.424;2023-05-16T13:12:23;14.70;99.90
12276;DHT22;6200;48.144;11.424;2023-05-16T13:14:52;14.90;99.90
12276;DHT22;6200;48.144;11.424;2023-05-16T13:17:18;15.00;99.90
12276;DHT22;6200;48.144;11.424;2023-05-16T13:19:43;15.30;99.90
12276;DHT22;6200;48.144;11.424;2023-05-16T13:22:09;15.40;99.90
12276;DHT22;6200;48.144;11.424;2023-05-16T13:24:35;15.50;99.90
12276;DHT22;6200;48.144;11.424;2023-05-16T13:27:00;15.40;99.90
12276;DHT22;6200;48.144;11.424;2023-05-16T13:29:26;15.30;99.90
12276;DHT22;6200;48.144;11.424;2023-05-16T13:31:51;15.10;99.90
12276;DHT22;6200;48.144;11.424;2023-05-16T13:34:17;15.00;99.90
12276;DHT22;6200;48.144;11.424;2023-05-16T13:36:42;14.90;99.90
12276;DHT22;6200;48.144;11.424;2023-05-16T13:39:10;14.70;99.90
12276;DHT22;6200;48.144;11.424;2023-05-16T13:41:37;14.60;99.90
12276;DHT22;6200;48.144;11.424;2023-05-16T13:44:04;14.50;99.90
12276;DHT22;6200;48.144;11.424;2023-05-16T13:46:30;14.40;99.90
12276;DHT22;6200;48.144;11.424;2023-05-16T13:48:55;14.30;99.90
12276;DHT22;6200;48.144;11.424;2023-05-16T13:51:23;14.20;99.90
12276;DHT22;6200;48.144;11.424;2023-05-16T13:53:48;14.10;99.90
12276;DHT22;6200;48.144;11.424;2023-05-16T13:56:14;13.90;99.90
12276;DHT22;6200;48.144;11.424;2023-05-16T13:58:39;13.80;99.90
12276;DHT22;6200;48.144;11.424;2023-05-16T14:01:05;13.70;99.90
12276;DHT22;6200;48.144;11.424;2023-05-16T14:03:31;13.60;99.90
12276;DHT22;6200;48.144;11.424;2023-05-16T14:05:57;13.50;99.90
12276;DHT22;6200;48.144;11.424;2023-05-16T14:08:22;13.40;99.90
12276;DHT22;6200;48.144;11.424;2023-05-16T14:10:48;13.30;99.90
12276;DHT22;6200;48.144;11.424;2023-05-16T14:13:13;13.20;99.90
12276;DHT22;6200;48.144;11.424;2023-05-16T14:15:39;13.10;99.90
12276;DHT22;6200;48.144;11.424;2023-05-16T14:18:05;13.00;99.90
12276;DHT22;6200;48.144;11.424;2023-05-16T14:20:30;12.90;99.90
12276;DHT22;6200;48.144;11.424;2023-05-16T14:22:56;12.90;99.90
12276;DHT22;6200;48.144;11.424;2023-05-16T14:25:21;12.80;99.90
12276;DHT22;6200;48.144;11.424;2023-05-16T14:27:47;12.80;99.90
12276;DHT22;6200;48.144;11.424;2023-05-16T14:30:15;12.70;99.90
12276;DHT22;6200;48.144;11.424;2023-05-16T14:32:40;12.70;99.90
12276;DHT22;6200;48.144;11.424;2023-05-16T14:35:06;12.60;99.90
12276;DHT22;6200;48.144;11.424;2023-05-16T14:37:33;12.60;99.90
12276;DHT22;6200;48.144;11.424;2023-05-16T14:39:59;12.60;99.90
12276;DHT22;6200;48.144;11.424;2023-05-16T14:42:25;12.60;99.90
12276;DHT22;6200;48.144;11.424;2023-05-16T14:44:51;12.60;99.90
12276;DHT22;6200;48.144;11.424;2023-05-16T14:47:16;12.60;99.90
12276;DHT22;6200;48.144;11.424;2023-05-16T14:49:42;12.60;99.90
12276;DHT22;6200;48.144;11.424;2023-05-16T14:52:07;12.60;99.90
12276;DHT22;6200;48.144;11.424;2023-05-16T14:54:33;12.60;99.90
12276;DHT22;6200;48.144;11.424;2023-05-16T14:56:59;12.50;99.90
12276;DHT22;6200;48.144;11.424;2023-05-16T14:59:26;12.50;99.90
12276;DHT22;6200;48.144;11.424;2023-05-16T15:01:51;12.50;99.90
12276;DHT22;6200;48.144;11.424;2023-05-16T15:04:17;12.50;99.90
12276;DHT22;6200;48.144;11.424;2023-05-16T15:06:42;12.50;99.90
12276;DHT22;6200;48.144;11.424;2023-05-16T15:09:08;12.50;99.90
12276;DHT22;6200;48.144;11.424;2023-05-16T15:11:34;12.50;99.90
12276;DHT22;6200;48.144;11.424;2023-05-16T15:13:59;12.40;99.90
12276;DHT22;6200;48.144;11.424;2023-05-16T15:16:25;12.40;99.90
12276;DHT22;6200;48.144;11.424;2023-05-16T15:18:51;12.40;99.90
12276;DHT22;6200;48.144;11.424;2023-05-16T15:21:17;12.40;99.90
12276;DHT22;6200;48.144;11.424;2023-05-16T15:23:43;12.40;99.90
12276;DHT22;6200;48.144;11.424;2023-05-16T15:26:08;12.40;99.90
12276;DHT22;6200;48.144;11.424;2023-05-16T15:28:34;12.40;99.90
12276;DHT22;6200;48.144;11.424;2023-05-16T15:30:59;12.30;99.90
12276;DHT22;6200;48.144;11.424;2023-05-16T15:33:25;12.20;99.90
12276;DHT22;6200;48.144;11.424;2023-05-16T15:35:50;12.30;99.90
12276;DHT22;6200;48.144;11.424;2023-05-16T15:38:16;12.30;99.90